createdAt,value
2023-03-17T00:00:59.653Z,2.07
2023-03-17T00:03:35.872Z,2.04
2023-03-17T00:06:13.114Z,2.02
2023-03-17T00:08:50.658Z,1.97
2023-03-17T00:11:28.115Z,1.92
2023-03-17T00:14:01.667Z,1.87
2023-03-17T00:16:38.188Z,1.85
2023-03-17T00:19:19.577Z,1.87
2023-03-17T00:21:53.445Z,1.85
2023-03-17T00:24:26.818Z,1.79
2023-03-17T00:26:59.963Z,1.76
2023-03-17T00:29:33.080Z,1.75
2023-03-17T00:32:08.141Z,1.72
2023-03-17T00:34:41.662Z,1.67
2023-03-17T00:37:18.466Z,1.60
2023-03-17T00:39:51.656Z,1.56
2023-03-17T00:42:24.749Z,1.56
2023-03-17T00:44:58.147Z,1.54
2023-03-17T00:47:32.175Z,1.53
2023-03-17T00:50:06.769Z,1.54
2023-03-17T00:52:41.060Z,1.55
2023-03-17T00:55:19.827Z,1.56
2023-03-17T00:57:53.938Z,1.56
2023-03-17T01:00:31.986Z,1.50
2023-03-17T01:03:05.405Z,1.48
2023-03-17T01:05:39.037Z,1.46
2023-03-17T01:08:14.051Z,1.45
2023-03-17T01:10:50.321Z,1.44
2023-03-17T01:13:25.456Z,1.42
2023-03-17T01:15:59.697Z,1.42
2023-03-17T01:18:32.910Z,1.40
2023-03-17T01:21:06.927Z,1.39
2023-03-17T01:23:57.490Z,1.37
2023-03-17T01:26:37.811Z,1.39
2023-03-17T01:29:11.540Z,1.40
2023-03-17T01:31:48.542Z,1.34
2023-03-17T01:34:22.153Z,1.33
2023-03-17T01:36:55.452Z,1.31
2023-03-17T01:39:28.991Z,1.29
2023-03-17T01:42:02.988Z,1.29
2023-03-17T01:44:36.107Z,1.26
2023-03-17T01:47:09.736Z,1.26
2023-03-17T01:49:43.261Z,1.26
2023-03-17T01:52:23.092Z,1.27
2023-03-17T01:54:59.963Z,1.30
2023-03-17T01:57:37.275Z,1.28
2023-03-17T02:00:14.312Z,1.27
2023-03-17T02:02:54.132Z,1.26
2023-03-17T02:05:30.000Z,1.26
2023-03-17T02:08:03.327Z,1.27
2023-03-17T02:10:36.508Z,1.28
2023-03-17T02:13:15.813Z,1.27
2023-03-17T02:15:52.325Z,1.27
2023-03-17T02:18:28.670Z,1.25
2023-03-17T02:21:35.276Z,1.26
2023-03-17T02:24:17.031Z,1.25
2023-03-17T02:26:52.061Z,1.22
2023-03-17T02:29:27.928Z,1.17
2023-03-17T02:32:01.129Z,1.15
2023-03-17T02:34:35.899Z,1.15
2023-03-17T02:37:11.421Z,1.14
2023-03-17T02:39:48.767Z,1.11
2023-03-17T02:42:23.303Z,1.05
2023-03-17T02:44:56.630Z,1.01
2023-03-17T02:47:29.788Z,0.95
2023-03-17T02:50:03.085Z,0.91
2023-03-17T02:52:36.602Z,0.94
2023-03-17T02:55:11.686Z,0.98
2023-03-17T02:57:44.843Z,1.02
2023-03-17T03:00:23.165Z,1.03
2023-03-17T03:02:57.002Z,1.03
2023-03-17T03:05:30.266Z,1.02
2023-03-17T03:08:03.832Z,1.03
2023-03-17T03:10:39.663Z,1.03
2023-03-17T03:13:16.951Z,1.04
2023-03-17T03:15:50.614Z,1.04
2023-03-17T03:18:23.852Z,1.08
2023-03-17T03:20:57.012Z,1.06
2023-03-17T03:23:30.357Z,1.03
2023-03-17T03:26:03.848Z,1.01
2023-03-17T03:28:37.486Z,0.99
2023-03-17T03:31:10.871Z,1.02
2023-03-17T03:33:46.202Z,0.99
2023-03-17T03:36:19.359Z,0.98
2023-03-17T03:38:52.453Z,1.00
2023-03-17T03:41:25.808Z,0.99
2023-03-17T03:43:59.097Z,0.96
2023-03-17T03:46:32.220Z,0.92
2023-03-17T03:49:05.789Z,0.88
2023-03-17T03:51:38.954Z,0.88
2023-03-17T03:54:12.301Z,0.88
2023-03-17T03:56:45.514Z,0.89
2023-03-17T03:59:18.728Z,0.91
2023-03-17T04:01:51.818Z,0.94
2023-03-17T04:04:27.101Z,0.98
2023-03-17T04:07:02.478Z,1.04
2023-03-17T04:09:36.224Z,1.03
2023-03-17T04:12:12.100Z,1.06
2023-03-17T04:14:45.890Z,1.08
2023-03-17T04:17:19.073Z,1.09
2023-03-17T04:19:52.473Z,1.11
2023-03-17T04:22:27.815Z,1.18
2023-03-17T04:25:01.745Z,1.22
2023-03-17T04:27:36.685Z,1.24
2023-03-17T04:30:14.589Z,1.24
2023-03-17T04:32:49.000Z,1.25
2023-03-17T04:35:26.408Z,1.24
2023-03-17T04:38:01.402Z,1.28
2023-03-17T04:40:34.728Z,1.25
2023-03-17T04:46:13.173Z,1.35
2023-03-17T04:48:50.441Z,1.22
2023-03-17T04:51:23.545Z,1.25
2023-03-17T04:54:01.653Z,1.35
2023-03-17T04:56:37.219Z,1.39
2023-03-17T04:59:12.410Z,1.43
2023-03-17T05:01:49.182Z,1.47
2023-03-17T05:04:31.154Z,1.48
2023-03-17T05:06:59.246Z,1.50
2023-03-17T05:09:37.956Z,1.48
2023-03-17T05:12:12.715Z,1.47
2023-03-17T05:14:45.858Z,1.47
2023-03-17T05:17:20.927Z,1.47
2023-03-17T05:19:54.156Z,1.47
2023-03-17T05:22:27.318Z,1.54
2023-03-17T05:25:00.604Z,1.67
2023-03-17T05:27:36.833Z,1.83
2023-03-17T05:30:14.277Z,1.98
2023-03-17T05:32:47.494Z,2.09
2023-03-17T05:35:29.836Z,2.15
2023-03-17T05:38:08.272Z,2.19
2023-03-17T05:40:44.840Z,2.22
2023-03-17T05:43:20.250Z,2.22
2023-03-17T05:45:54.882Z,2.24
2023-03-17T05:48:29.438Z,2.29
2023-03-17T05:51:02.729Z,2.38
2023-03-17T05:53:36.326Z,2.44
2023-03-17T05:56:10.164Z,2.47
2023-03-17T05:58:45.791Z,2.53
2023-03-17T06:01:19.423Z,2.73
2023-03-17T06:03:52.671Z,3.04
2023-03-17T06:06:27.196Z,3.35
2023-03-17T06:09:01.772Z,3.50
2023-03-17T06:11:35.070Z,3.55
2023-03-17T06:14:08.309Z,3.52
2023-03-17T06:16:42.309Z,3.53
2023-03-17T06:19:15.430Z,3.78
2023-03-17T06:21:48.600Z,4.05
2023-03-17T06:24:22.127Z,4.49
2023-03-17T06:26:55.299Z,5.32
2023-03-17T06:29:29.194Z,6.13
2023-03-17T06:32:18.823Z,6.28
2023-03-17T06:34:37.467Z,6.15
2023-03-17T06:37:11.760Z,6.13
2023-03-17T06:39:45.397Z,6.21
2023-03-17T06:42:19.389Z,6.42
2023-03-17T06:44:53.189Z,6.65
2023-03-17T06:47:26.530Z,6.66
2023-03-17T06:49:59.780Z,6.98
2023-03-17T06:52:34.726Z,7.37
2023-03-17T06:55:09.086Z,7.28
2023-03-17T06:57:43.693Z,8.34
2023-03-17T07:00:23.358Z,10.07
2023-03-17T07:02:56.895Z,11.45
2023-03-17T07:05:30.522Z,11.87
2023-03-17T07:08:03.906Z,11.66
2023-03-17T07:10:37.378Z,11.52
2023-03-17T07:13:10.670Z,11.11
2023-03-17T07:15:45.300Z,10.41
2023-03-17T07:18:19.402Z,9.72
2023-03-17T07:20:52.710Z,9.01
2023-03-17T07:23:26.329Z,8.41
2023-03-17T07:26:00.534Z,7.91
2023-03-17T07:28:33.635Z,7.55
2023-03-17T07:31:09.253Z,7.20
2023-03-17T07:33:42.685Z,6.83
2023-03-17T07:36:16.248Z,6.67
2023-03-17T07:38:49.490Z,6.45
2023-03-17T07:41:27.820Z,6.18
2023-03-17T07:44:18.147Z,6.03
2023-03-17T07:47:03.562Z,5.90
2023-03-17T07:49:41.697Z,5.91
2023-03-17T07:52:13.261Z,5.95
2023-03-17T07:54:46.710Z,6.04
2023-03-17T07:57:20.020Z,6.11
2023-03-17T07:59:53.288Z,6.37
2023-03-17T08:02:27.023Z,6.76
2023-03-17T08:05:04.068Z,7.35
2023-03-17T08:07:39.661Z,8.18
2023-03-17T08:10:15.071Z,9.36
2023-03-17T08:12:54.139Z,10.80
2023-03-17T08:15:31.163Z,11.85
2023-03-17T08:18:09.123Z,12.84
2023-03-17T08:20:43.121Z,13.41
2023-03-17T08:23:24.169Z,14.21
2023-03-17T08:26:00.664Z,14.65
2023-03-17T08:28:34.692Z,15.34
2023-03-17T08:31:16.317Z,15.60
2023-03-17T08:33:59.826Z,16.14
2023-03-17T08:36:38.984Z,17.17
2023-03-17T08:39:12.517Z,17.83
2023-03-17T08:41:47.183Z,17.12
2023-03-17T08:44:22.138Z,17.44
2023-03-17T08:46:56.573Z,16.41
2023-03-17T08:49:34.205Z,18.15
2023-03-17T08:52:08.285Z,17.96
2023-03-17T08:54:41.511Z,17.51
2023-03-17T08:57:15.772Z,17.06
2023-03-17T08:59:49.711Z,16.92
2023-03-17T09:02:23.604Z,17.06
2023-03-17T09:04:57.889Z,17.43
2023-03-17T09:07:31.529Z,17.36
2023-03-17T09:10:05.522Z,17.62
2023-03-17T09:12:39.138Z,18.29
2023-03-17T09:15:14.438Z,20.02
2023-03-17T09:17:47.581Z,21.65
2023-03-17T09:20:22.432Z,22.83
2023-03-17T09:22:56.690Z,23.39
2023-03-17T09:25:29.977Z,23.74
2023-03-17T09:28:03.877Z,25.03
2023-03-17T09:30:37.892Z,26.09
2023-03-17T09:33:12.229Z,26.57
2023-03-17T09:35:45.643Z,27.52
2023-03-17T09:38:18.753Z,28.30
2023-03-17T09:40:56.325Z,28.48
2023-03-17T09:46:18.001Z,27.27
2023-03-17T09:48:57.931Z,27.34
2023-03-17T09:51:33.305Z,26.62
2023-03-17T09:54:09.048Z,25.90
2023-03-17T09:56:45.429Z,25.16
2023-03-17T09:59:30.306Z,25.53
2023-03-17T10:02:04.739Z,25.74
2023-03-17T10:04:38.589Z,26.02
2023-03-17T10:07:16.494Z,26.00
2023-03-17T10:09:54.121Z,26.07
2023-03-17T10:12:31.152Z,26.66
2023-03-17T10:15:06.939Z,27.72
2023-03-17T10:17:42.877Z,27.91
2023-03-17T10:20:20.968Z,27.75
2023-03-17T10:22:58.299Z,27.61
2023-03-17T10:25:32.026Z,27.20
2023-03-17T10:28:09.251Z,26.95
2023-03-17T10:30:43.596Z,26.35
2023-03-17T10:33:16.963Z,27.12
2023-03-17T10:35:50.148Z,27.50
2023-03-17T10:38:25.140Z,27.56
2023-03-17T10:41:00.697Z,28.15
2023-03-17T10:43:38.820Z,28.84
2023-03-17T10:46:20.026Z,28.84
2023-03-17T10:48:55.272Z,28.29
2023-03-17T10:51:32.650Z,28.06
2023-03-17T10:54:10.897Z,27.96
2023-03-17T10:56:46.593Z,28.27
2023-03-17T10:59:24.813Z,28.07
2023-03-17T11:02:01.653Z,27.96
2023-03-17T11:04:38.855Z,28.29
2023-03-17T11:07:17.623Z,28.57
2023-03-17T11:09:53.135Z,28.25
2023-03-17T11:12:29.483Z,27.87
2023-03-17T11:15:06.045Z,27.63
2023-03-17T11:17:46.871Z,27.95
2023-03-17T11:20:34.508Z,28.52
2023-03-17T11:23:11.822Z,28.81
2023-03-17T11:25:44.669Z,28.45
2023-03-17T11:28:22.265Z,28.88
2023-03-17T11:31:01.669Z,28.27
2023-03-17T11:33:40.374Z,27.07
2023-03-17T11:36:21.375Z,26.73
2023-03-17T11:39:00.870Z,26.92
2023-03-17T11:41:47.752Z,27.09
2023-03-17T11:44:54.016Z,27.33
2023-03-17T11:47:49.675Z,27.98
2023-03-17T11:50:30.140Z,28.18
2023-03-17T11:53:18.817Z,27.78
2023-03-17T11:55:56.112Z,27.76
2023-03-17T11:58:30.534Z,27.77
2023-03-17T12:01:08.098Z,27.72
2023-03-17T12:03:46.318Z,27.87
2023-03-17T12:06:22.091Z,28.40
2023-03-17T12:08:59.882Z,27.95
2023-03-17T12:11:38.804Z,27.30
2023-03-17T12:14:17.395Z,27.61
2023-03-17T12:16:53.662Z,27.57
2023-03-17T12:19:47.612Z,27.51
2023-03-17T12:22:26.866Z,27.62
2023-03-17T12:25:07.698Z,27.66
2023-03-17T12:27:44.729Z,27.55
2023-03-17T12:30:25.495Z,27.29
2023-03-17T12:33:06.185Z,26.67
2023-03-17T12:35:40.820Z,26.12
2023-03-17T12:38:17.330Z,25.93
2023-03-17T12:41:00.864Z,26.22
2023-03-17T12:43:45.669Z,26.51
2023-03-17T12:46:50.092Z,26.70
2023-03-17T12:50:13.688Z,26.00
2023-03-17T12:53:00.790Z,24.62
2023-03-17T12:55:36.362Z,23.83
2023-03-17T12:58:19.033Z,23.53
2023-03-17T13:00:55.017Z,23.19
2023-03-17T13:03:30.725Z,24.09
2023-03-17T13:06:07.567Z,24.78
2023-03-17T13:08:43.225Z,25.32
2023-03-17T13:11:30.843Z,26.10
2023-03-17T13:14:19.298Z,26.31
2023-03-17T13:16:53.807Z,26.14
2023-03-17T13:19:29.153Z,25.71
2023-03-17T13:22:28.201Z,25.75
2023-03-17T13:25:14.117Z,25.92
2023-03-17T13:27:50.080Z,26.14
2023-03-17T13:30:46.134Z,26.20
2023-03-17T13:33:25.340Z,25.02
2023-03-17T13:36:15.782Z,24.27
2023-03-17T13:39:24.878Z,23.99
2023-03-17T13:42:15.669Z,23.74
2023-03-17T13:44:56.569Z,23.58
2023-03-17T13:47:37.928Z,23.64
2023-03-17T13:50:18.938Z,23.91
2023-03-17T13:52:56.527Z,23.66
2023-03-17T13:55:38.182Z,23.35
2023-03-17T13:58:29.063Z,23.10
2023-03-17T14:01:09.784Z,22.88
2023-03-17T14:03:47.588Z,22.56
2023-03-17T14:06:23.825Z,21.98
2023-03-17T14:09:00.786Z,21.33
2023-03-17T14:11:37.994Z,20.60
2023-03-17T14:14:32.912Z,20.28
2023-03-17T14:17:04.270Z,20.24
2023-03-17T14:19:39.942Z,20.37
2023-03-17T14:22:25.470Z,20.46
2023-03-17T14:25:00.837Z,20.35
2023-03-17T14:27:38.128Z,20.20
2023-03-17T14:30:19.562Z,20.01
2023-03-17T14:32:59.078Z,19.80
2023-03-17T14:35:37.746Z,19.43
2023-03-17T14:38:19.674Z,19.07
2023-03-17T14:40:55.273Z,19.21
2023-03-17T14:43:28.506Z,19.13
2023-03-17T14:46:05.285Z,18.69
2023-03-17T14:48:41.353Z,18.18
2023-03-17T14:51:20.158Z,17.82
2023-03-17T14:53:56.339Z,17.21
2023-03-17T14:56:33.718Z,16.67
2023-03-17T14:59:10.088Z,16.13
2023-03-17T15:01:47.502Z,15.72
2023-03-17T15:04:25.877Z,15.42
2023-03-17T15:07:00.541Z,15.01
2023-03-17T15:09:37.984Z,14.47
2023-03-17T15:12:18.742Z,13.97
2023-03-17T15:15:09.382Z,13.47
2023-03-17T15:17:42.664Z,13.01
2023-03-17T15:20:19.053Z,12.30
2023-03-17T15:22:59.927Z,11.97
2023-03-17T15:25:38.686Z,11.78
2023-03-17T15:28:15.617Z,11.43
2023-03-17T15:30:51.752Z,11.14
2023-03-17T15:33:27.679Z,10.79
2023-03-17T15:36:01.845Z,10.44
2023-03-17T15:38:36.846Z,9.76
2023-03-17T15:41:10.236Z,9.20
2023-03-17T15:43:43.330Z,8.80
2023-03-17T15:46:27.787Z,8.40
2023-03-17T15:49:01.338Z,8.02
2023-03-17T15:51:52.752Z,7.74
2023-03-17T15:54:33.055Z,7.57
2023-03-17T16:03:28.948Z,6.69
2023-03-17T16:06:28.467Z,6.28
2023-03-17T16:09:02.311Z,6.09
2023-03-17T16:11:37.880Z,5.90
2023-03-17T16:14:13.930Z,5.74
2023-03-17T16:16:50.109Z,5.65
2023-03-17T16:19:25.383Z,5.48
2023-03-17T16:22:25.816Z,5.45
2023-03-17T16:25:03.801Z,5.30
2023-03-17T16:27:37.125Z,5.24
2023-03-17T16:30:18.200Z,5.21
2023-03-17T16:32:59.302Z,5.12
2023-03-17T16:35:34.067Z,4.99
2023-03-17T16:38:13.646Z,4.86
2023-03-17T16:40:55.388Z,4.78
2023-03-17T16:43:30.814Z,4.68
2023-03-17T16:46:07.560Z,4.58
2023-03-17T16:48:45.152Z,4.50
2023-03-17T16:51:18.924Z,4.34
2023-03-17T16:53:53.377Z,4.17
2023-03-17T16:56:37.296Z,4.08
2023-03-17T16:59:15.731Z,4.00
2023-03-17T17:02:01.048Z,3.88
2023-03-17T17:04:41.485Z,3.73
2023-03-17T17:07:16.148Z,3.62
2023-03-17T17:09:49.953Z,3.52
2023-03-17T17:12:24.579Z,3.44
2023-03-17T17:15:04.301Z,3.35
2023-03-17T17:17:39.273Z,3.25
2023-03-17T17:20:18.796Z,3.17
2023-03-17T17:22:53.273Z,3.07
2023-03-17T17:25:27.455Z,3.00
2023-03-17T17:28:01.155Z,2.93
2023-03-17T17:30:37.567Z,2.86
2023-03-17T17:33:12.173Z,2.86
2023-03-17T17:35:46.291Z,2.84
2023-03-17T17:39:05.322Z,2.77
2023-03-17T18:00:15.588Z,2.22
2023-03-17T18:03:06.990Z,2.07
2023-03-17T18:05:59.166Z,2.09
2023-03-17T18:08:32.707Z,2.09
2023-03-17T18:11:08.696Z,2.05
2023-03-17T18:13:54.785Z,1.98
2023-03-17T18:16:49.089Z,1.94
2023-03-17T18:19:22.825Z,1.79
2023-03-17T18:21:56.448Z,1.88
2023-03-17T18:24:33.899Z,1.84
2023-03-17T18:27:13.804Z,1.80
2023-03-17T18:29:47.703Z,1.69
2023-03-17T18:32:21.046Z,1.59
2023-03-17T18:35:00.621Z,1.49
2023-03-17T18:37:37.502Z,1.42
2023-03-17T18:40:18.792Z,1.36
2023-03-17T18:42:52.719Z,1.31
2023-03-17T18:45:27.782Z,1.31
2023-03-17T18:48:01.021Z,1.28
2023-03-17T18:50:37.960Z,1.27
2023-03-17T18:53:11.301Z,1.21
2023-03-17T18:55:47.277Z,1.13
2023-03-17T18:58:22.219Z,1.03
2023-03-17T19:00:56.870Z,0.97
2023-03-17T19:03:33.498Z,0.93
2023-03-17T19:06:17.291Z,0.92
2023-03-17T19:08:54.331Z,0.91
2023-03-17T19:11:28.442Z,0.88
2023-03-17T19:14:04.277Z,0.85
2023-03-17T19:16:48.180Z,0.82
2023-03-17T19:19:30.369Z,0.81
2023-03-17T19:22:06.337Z,0.77
2023-03-17T19:24:41.283Z,0.77
2023-03-17T19:27:14.871Z,0.77
2023-03-17T19:29:48.159Z,0.73
2023-03-17T19:32:21.479Z,0.69
2023-03-17T19:34:55.031Z,0.67
2023-03-17T19:37:32.347Z,0.58
2023-03-17T19:40:11.722Z,0.51
2023-03-17T19:42:45.697Z,0.47
2023-03-17T19:45:22.270Z,0.41
2023-03-17T19:47:58.123Z,0.29
2023-03-17T19:50:33.214Z,0.17
2023-03-17T19:53:07.375Z,0.09
2023-03-17T19:55:40.735Z,0.06
2023-03-17T19:58:16.877Z,0.01
2023-03-17T20:00:49.993Z,-0.03
2023-03-17T20:03:26.072Z,-0.11
2023-03-17T20:06:01.391Z,-0.19
2023-03-17T20:08:35.885Z,-0.22
2023-03-17T20:11:09.433Z,-0.26
2023-03-17T20:13:42.848Z,-0.28
2023-03-17T20:16:16.845Z,-0.31
2023-03-17T20:18:50.166Z,-0.33
2023-03-17T20:21:23.719Z,-0.37
2023-03-17T20:23:57.388Z,-0.42
2023-03-17T20:26:31.873Z,-0.45
2023-03-17T20:29:08.617Z,-0.46
2023-03-17T20:31:42.758Z,-0.50
2023-03-17T20:34:15.934Z,-0.52
2023-03-17T20:36:51.565Z,-0.53
2023-03-17T20:39:24.835Z,-0.55
2023-03-17T20:41:58.017Z,-0.61
2023-03-17T20:44:31.649Z,-0.75
2023-03-17T20:47:04.892Z,-0.73
2023-03-17T20:49:58.762Z,-0.77
2023-03-17T20:52:44.324Z,-0.83
2023-03-17T20:55:23.068Z,-0.85
2023-03-17T20:57:57.910Z,-0.88
2023-03-17T21:00:32.230Z,-0.90
2023-03-17T21:03:06.427Z,-0.95
2023-03-17T21:05:39.769Z,-0.98
2023-03-17T21:08:13.312Z,-1.02
2023-03-17T21:10:46.514Z,-1.08
2023-03-17T21:13:21.836Z,-1.12
2023-03-17T21:15:55.899Z,-1.14
2023-03-17T21:18:31.051Z,-1.19
2023-03-17T21:21:04.356Z,-1.20
2023-03-17T21:23:37.907Z,-1.24
2023-03-17T21:26:11.778Z,-1.24
2023-03-17T21:28:45.079Z,-1.29
2023-03-17T21:31:18.344Z,-1.34
2023-03-17T21:33:51.967Z,-1.40
2023-03-17T21:36:25.280Z,-1.47
2023-03-17T21:38:58.457Z,-1.53
2023-03-17T21:41:35.903Z,-1.56
2023-03-17T21:44:10.081Z,-1.58
2023-03-17T21:46:43.317Z,-1.58
2023-03-17T21:49:18.935Z,-1.67
2023-03-17T21:51:54.848Z,-1.75
2023-03-17T21:54:28.540Z,-1.82
2023-03-17T21:57:01.850Z,-1.84
2023-03-17T21:59:35.986Z,-1.85
2023-03-17T22:02:10.850Z,-1.86
2023-03-17T22:04:44.049Z,-1.86
2023-03-17T22:07:19.160Z,-1.86
2023-03-17T22:09:54.905Z,-1.87
2023-03-17T22:12:29.001Z,-1.91
2023-03-17T22:15:02.742Z,-1.96
2023-03-17T22:17:36.594Z,-1.98
2023-03-17T22:20:11.213Z,-2.08
2023-03-17T22:22:44.455Z,-2.10
2023-03-17T22:25:17.796Z,-2.11
2023-03-17T22:27:51.034Z,-2.11
2023-03-17T22:30:25.277Z,-2.09
2023-03-17T22:32:58.507Z,-2.12
2023-03-17T22:35:32.382Z,-2.13
2023-03-17T22:38:06.193Z,-2.15
2023-03-17T22:40:39.323Z,-2.27
2023-03-17T22:43:14.777Z,-2.22
2023-03-17T22:45:48.778Z,-2.25
2023-03-17T22:48:21.956Z,-2.29
2023-03-17T22:50:59.451Z,-2.33
2023-03-17T22:53:33.059Z,-2.40
2023-03-17T22:56:07.922Z,-2.41
2023-03-17T22:58:41.686Z,-2.45
2023-03-17T23:01:16.682Z,-2.49
2023-03-17T23:03:50.387Z,-2.53
2023-03-17T23:06:23.912Z,-2.63
2023-03-17T23:08:58.072Z,-2.67
2023-03-17T23:11:31.330Z,-2.73
2023-03-17T23:14:04.484Z,-2.75
2023-03-17T23:16:37.908Z,-2.77
2023-03-17T23:19:11.183Z,-2.77
2023-03-17T23:21:44.466Z,-2.80
2023-03-17T23:24:20.209Z,-2.85
2023-03-17T23:26:53.753Z,-2.90
2023-03-17T23:29:27.934Z,-2.93
2023-03-17T23:32:02.549Z,-2.96
2023-03-17T23:34:36.226Z,-3.00
2023-03-17T23:37:09.710Z,-3.05
2023-03-17T23:39:43.316Z,-3.07
2023-03-17T23:42:18.293Z,-3.06
2023-03-17T23:44:52.018Z,-3.09
2023-03-17T23:47:26.367Z,-3.13
2023-03-17T23:49:59.694Z,-3.14
2023-03-17T23:52:33.987Z,-3.17
2023-03-17T23:55:11.886Z,-3.19
2023-03-17T23:57:45.221Z,-3.23
